Weather History for Kaiser, MO

Change the Weather History Date:

Monday, November 19, 2012

  Actual Average Record
Temperature  
Mean Temperature 52 °F -  
Max Temperature 59 °F 53 °F 71 °F (2007)
Min Temperature 44 °F 34 °F 19 °F (2000)
Degree Days  
Heating Degree Days 12    
Growing Degree Days 2 (Base 50)    
Moisture  
Dew Point 42 °F    
Average Humidity 70    
Maximum Humidity 87    
Minimum Humidity 47    
Precipitation  
Precipitation 0.09 in - - ()
Sea Level Pressure  
Sea Level Pressure 30.20 in    
Wind  
Wind Speed 7 mph (South)    
Max Wind Speed 13 mph    
Max Gust Speed -    
Visibility 10 miles    
Events      
Averages and records for this station are not official NWS values.
T = Trace of Precipitation, MM = Missing Value Source: NWS Daily Summary

Daily Weather History Graph

Daily Weather History Graph

Search for Another Location

Airport:

Trip Planner

Search our weather history database for the weather conditions in past years. The results will help you decide how hot, cold, wet, or windy it might be!

Date:

Astronomy

Nov. 19, 2012 Rise Set
Actual Time 6:55 AM CST 4:55 PM CST
Civil Twilight 6:27 AM CST 5:23 PM CST
Nautical Twilight 5:55 AM CST 5:55 PM CST
Astronomical Twilight 5:24 AM CST 6:27 PM CST
Moon 12:01 PM CST (11/19) 11:20 PM CST (11/19)
Length of Visible Light 10h 56m
Length of Day
9h 59m
Waxing Crescent, 41% of the Moon is Illuminated
Nov 19
Waxing Crescent
Nov 20
First Quarter
Nov 28
Full
Dec 6
Last Quarter
Dec 13
New

Hourly Weather History & Observations

Time (CST) Temp. Windchill Dew Point Humidity Pressure Visibility Wind Dir Wind Speed Gust Speed Precip Events Conditions
12:15 AM 51.8 °F - 32.0 °F 47% 30.27 in 10.0 mi South 5.8 mph - N/A   Overcast
12:35 AM 51.8 °F - 32.0 °F 47% 30.26 in 10.0 mi SSE 8.1 mph - N/A   Overcast
12:55 AM 51.8 °F - 33.8 °F 50% 30.26 in 10.0 mi SSW 6.9 mph - N/A   Overcast
1:15 AM 51.8 °F - 33.8 °F 50% 30.25 in 10.0 mi South 6.9 mph - N/A   Overcast
1:35 AM 51.8 °F - 33.8 °F 50% 30.25 in 10.0 mi South 5.8 mph - N/A   Overcast
1:55 AM 51.8 °F - 33.8 °F 50% 30.25 in 10.0 mi South 6.9 mph - N/A   Overcast
2:15 AM 51.8 °F - 35.6 °F 54% 30.25 in 10.0 mi SSE 6.9 mph - N/A   Overcast
2:35 AM 50.0 °F - 35.6 °F 58% 30.25 in 10.0 mi SSE 8.1 mph - N/A   Overcast
2:55 AM 48.2 °F - 37.4 °F 66% 30.25 in 10.0 mi SSE 5.8 mph - N/A   Overcast
3:15 AM 50.0 °F - 37.4 °F 62% 30.25 in 10.0 mi South 8.1 mph - N/A   Overcast
3:35 AM 48.2 °F - 37.4 °F 66% 30.24 in 10.0 mi South 6.9 mph - N/A   Overcast
3:55 AM 50.0 °F - 37.4 °F 62% 30.24 in 10.0 mi South 5.8 mph - N/A   Overcast
4:15 AM 50.0 °F - 37.4 °F 62% 30.25 in 10.0 mi South 5.8 mph - N/A   Overcast
4:35 AM 50.0 °F - 37.4 °F 62% 30.24 in 10.0 mi SSE 5.8 mph - N/A   Overcast
4:55 AM 50.0 °F - 37.4 °F 62% 30.24 in 10.0 mi SSE 6.9 mph - N/A   Overcast
5:15 AM 50.0 °F - 37.4 °F 62% 30.24 in 10.0 mi South 5.8 mph - N/A   Mostly Cloudy
5:35 AM 50.0 °F - 37.4 °F 62% 30.24 in 10.0 mi South 6.9 mph - N/A   Overcast
5:55 AM 48.2 °F - 37.4 °F 66% 30.25 in 10.0 mi SW 8.1 mph - N/A   Overcast
6:15 AM 48.2 °F - 39.2 °F 71% 30.25 in 9.0 mi SW 8.1 mph - 0.02 in   Overcast
6:35 AM 46.4 °F 44.3 °F 42.8 °F 87% 30.25 in 10.0 mi South 4.6 mph - 0.04 in   Overcast
6:55 AM 46.4 °F 45.2 °F 42.8 °F 87% 30.25 in 9.0 mi West 3.5 mph - 0.07 in   Overcast
7:35 AM 46.4 °F 44.3 °F 42.8 °F 87% 30.25 in 9.0 mi SSE 4.6 mph - 0.02 in   Overcast
7:55 AM 46.4 °F 43.5 °F 42.8 °F 87% 30.25 in 10.0 mi SSE 5.8 mph - 0.02 in   Overcast
8:15 AM 46.4 °F 43.5 °F 42.8 °F 87% 30.25 in 10.0 mi South 5.8 mph - N/A   Overcast
8:35 AM 48.2 °F - 41.0 °F 76% 30.25 in 10.0 mi South 5.8 mph - N/A   Overcast
8:55 AM 48.2 °F - 42.8 °F 82% 30.25 in 10.0 mi South 8.1 mph - N/A   Overcast
9:15 AM 48.2 °F - 42.8 °F 82% 30.25 in 10.0 mi SSE 6.9 mph - N/A   Overcast
9:35 AM 48.2 °F - 42.8 °F 82% 30.25 in 10.0 mi SSE 9.2 mph - N/A   Overcast
9:55 AM 48.2 °F - 42.8 °F 82% 30.25 in 10.0 mi South 8.1 mph - N/A   Overcast
10:15 AM 50.0 °F - 44.6 °F 82% 30.25 in 10.0 mi SSE 8.1 mph - N/A   Overcast
10:35 AM 51.8 °F - 44.6 °F 76% 30.25 in 10.0 mi South 6.9 mph - N/A   Overcast
10:55 AM 51.8 °F - 44.6 °F 76% 30.24 in 10.0 mi South 9.2 mph - N/A   Overcast
11:15 AM 51.8 °F - 44.6 °F 76% 30.23 in 10.0 mi South 6.9 mph - N/A   Overcast
11:35 AM 53.6 °F - 46.4 °F 77% 30.22 in 10.0 mi South 10.4 mph - N/A   Overcast
11:55 AM 53.6 °F - 44.6 °F 72% 30.21 in 10.0 mi South 8.1 mph - N/A   Overcast
12:15 PM 53.6 °F - 44.6 °F 72% 30.20 in 10.0 mi South 9.2 mph - N/A   Overcast
12:35 PM 55.4 °F - 44.6 °F 67% 30.19 in 10.0 mi South 10.4 mph - N/A   Overcast
12:55 PM 55.4 °F - 46.4 °F 72% 30.18 in 10.0 mi South 9.2 mph - N/A   Mostly Cloudy
1:15 PM 57.2 °F - 46.4 °F 67% 30.17 in 10.0 mi South 10.4 mph - N/A   Partly Cloudy
1:35 PM 57.2 °F - 44.6 °F 63% 30.16 in 10.0 mi South 12.7 mph - N/A   Clear
1:55 PM 57.2 °F - 46.4 °F 67% 30.16 in 10.0 mi South 6.9 mph - N/A   Clear
2:15 PM 59.0 °F - 44.6 °F 59% 30.16 in 10.0 mi SSW 11.5 mph - N/A   Clear
2:35 PM 59.0 °F - 44.6 °F 59% 30.16 in 10.0 mi South 9.2 mph - N/A   Clear
2:55 PM 59.0 °F - 44.6 °F 59% 30.15 in 10.0 mi South 10.4 mph - N/A   Clear
3:15 PM 59.0 °F - 44.6 °F 59% 30.14 in 10.0 mi South 9.2 mph - N/A   Clear
3:35 PM 59.0 °F - 44.6 °F 59% 30.14 in 10.0 mi SE 6.9 mph - N/A   Clear
3:55 PM 59.0 °F - 44.6 °F 59% 30.14 in 10.0 mi South 8.1 mph - N/A   Scattered Clouds
4:15 PM 57.2 °F - 44.6 °F 63% 30.14 in 10.0 mi South 6.9 mph - N/A   Partly Cloudy
4:35 PM 57.2 °F - 44.6 °F 63% 30.14 in 10.0 mi South 9.2 mph - N/A   Partly Cloudy
4:55 PM 55.4 °F - 44.6 °F 67% 30.14 in 10.0 mi South 9.2 mph - N/A   Clear
5:15 PM 55.4 °F - 44.6 °F 67% 30.14 in 10.0 mi South 5.8 mph - N/A   Clear
5:35 PM 53.6 °F - 44.6 °F 72% 30.15 in 10.0 mi South 5.8 mph - N/A   Partly Cloudy
5:55 PM 53.6 °F - 44.6 °F 72% 30.15 in 10.0 mi South 8.1 mph - N/A   Scattered Clouds
6:15 PM 51.8 °F - 44.6 °F 76% 30.15 in 10.0 mi South 6.9 mph - N/A   Clear
6:35 PM 51.8 °F - 44.6 °F 76% 30.16 in 10.0 mi South 6.9 mph - N/A   Clear
6:55 PM 51.8 °F - 42.8 °F 71% 30.16 in 10.0 mi South 6.9 mph - N/A   Clear
7:15 PM 51.8 °F - 42.8 °F 71% 30.16 in 10.0 mi South 6.9 mph - N/A   Clear
7:35 PM 50.0 °F - 42.8 °F 76% 30.15 in 10.0 mi South 5.8 mph - N/A   Clear
7:55 PM 50.0 °F - 42.8 °F 76% 30.15 in 10.0 mi South 8.1 mph - N/A   Clear
8:15 PM 50.0 °F - 42.8 °F 76% 30.16 in 10.0 mi South 4.6 mph - N/A   Clear
8:35 PM 48.2 °F - 42.8 °F 82% 30.15 in 10.0 mi South 5.8 mph - N/A   Clear
9:15 PM 48.2 °F - 42.8 °F 82% 30.15 in 10.0 mi South 5.8 mph - N/A   Clear
9:35 PM 48.2 °F - 42.8 °F 82% 30.15 in 10.0 mi South 4.6 mph - N/A   Clear
9:55 PM 46.4 °F 44.3 °F 42.8 °F 87% 30.15 in 10.0 mi SSW 4.6 mph - N/A   Clear
10:15 PM 46.4 °F 43.5 °F 42.8 °F 87% 30.14 in 10.0 mi South 5.8 mph - N/A   Clear
10:35 PM 46.4 °F 44.3 °F 42.8 °F 87% 30.14 in 10.0 mi South 4.6 mph - N/A   Clear
10:55 PM 46.4 °F 44.3 °F 41.0 °F 81% 30.14 in 10.0 mi SSW 4.6 mph - N/A   Clear
11:15 PM 46.4 °F 45.2 °F 41.0 °F 81% 30.14 in 10.0 mi South 3.5 mph - N/A   Clear
11:35 PM 46.4 °F 45.2 °F 41.0 °F 81% 30.14 in 10.0 mi South 3.5 mph - N/A   Clear
11:55 PM 44.6 °F 42.2 °F 41.0 °F 87% 30.14 in 10.0 mi SSW 4.6 mph - N/A   Clear